Vejr og vind

Viden om vejr og vind er en vigtig del af forberedelsen før enhver flyvning.
Herunder er vist links til sider om  vejr og vind og andre nyttige oplysninger.
Du kan finde information om det helt aktuelle vejr (METAR) og udsigt for de kommende timer (TAF) for åbne lufthavne.
I højre side vises informationer for Aalborg = EKYT (døgnåbent).

 

NorthAviMet (login: SULF & Sindal9394 )
Metar / taf oversætter
Vejret.info med oversætter (vælg sted under Danmark & Færøerne)
Earth Wind
Naviair: Digital indsendelse af ATS flyveplan
Naviair: NOTAM / SNOWTAM (vælg kode under By)
Naviair: PRD (skydeområder)
SkyVector
TAF Aalborg
EKYT 210801Z 2109/2209 VRB03KT 9999 SCT015 BKN050 TEMPO 2109/2111 4000 -RA BR BKN008 BECMG 2111/2113 29010KT BECMG 2119/2122 BKN014 TEMPO 2122/2208 BKN009
METAR Aalborg
EKYT 210950Z AUTO 30005KT 270V330 9999 FEW021/// BKN032/// 11/09 Q1011 EKYT 210920Z AUTO 27003KT 9999 FEW016/// SCT027/// BKN035/// 11/08 Q1011 EKYT 210850Z AUTO 32002KT 9999 FEW016/// BKN040/// BKN055/// 11/08 Q1011 EKYT 210820Z AUTO 33004KT 270V010 9999 FEW041/// BKN050/// 11/08 Q1010 EKYT 210750Z AUTO 30003KT 9999 -RA OVC049/// 10/08 Q1010 EKYT 210720Z AUTO 29003KT 9999 -RA BKN044/// BKN050/// 10/08 Q1010 TAF EKYT 210801Z 2109/2209 VRB03KT 9999 SCT015 BKN050 TEMPO 2109/2111 4000 -RA BR BKN008 BECMG 2111/2113 29010KT BECMG 2119/2122 BKN014 TEMPO 2122/2208 BKN009